Time;durP1;ratioP1;P1;durP2;ratioP2;P2;SDS_P1;SDS_P2;PMS_P1;PMS_P2;Temp;Humidity;BMP_temperature;BMP_pressure;BME280_temperature;BME280_humidity;BME280_pressure;Samples;Min_cycle;Max_cycle;Signal;HPM_P1;HPM_P2
2022/03/08 04:00:40;;;;;;;1.43;1.33;;;1.70;52.40;;;;;;5991559;23;20381;-69
2022/03/08 04:03:06;;;;;;;1.70;1.60;;;1.50;52.90;;;;;;4993518;28;20430;-68
2022/03/08 04:05:33;;;;;;;2.00;1.90;;;1.60;53.40;;;;;;4993031;28;20481;-69
2022/03/08 04:08:00;;;;;;;1.63;1.53;;;1.70;53.50;;;;;;4993371;28;20457;-69
2022/03/08 04:10:28;;;;;;;1.73;1.63;;;1.60;53.20;;;;;;4993413;28;20780;-69
2022/03/08 04:12:55;;;;;;;1.90;1.80;;;1.60;53.60;;;;;;4974378;28;20454;-69
2022/03/08 04:15:22;;;;;;;1.67;1.57;;;1.60;53.70;;;;;;5038251;23;20441;-74
2022/03/08 04:17:50;;;;;;;1.50;1.40;;;1.70;53.20;;;;;;4994260;28;20461;-72
2022/03/08 04:20:16;;;;;;;1.50;1.40;;;1.70;53.30;;;;;;4994130;28;20452;-72
2022/03/08 04:22:44;;;;;;;1.50;1.40;;;1.70;52.60;;;;;;4993807;28;20451;-72
2022/03/08 04:25:11;;;;;;;1.57;1.47;;;1.50;52.90;;;;;;4992378;28;20445;-72
2022/03/08 04:27:38;;;;;;;1.63;1.53;;;1.60;52.90;;;;;;4974667;28;20446;-72
2022/03/08 04:30:08;;;;;;;1.90;1.80;;;1.60;52.60;;;;;;4974421;28;20430;-72
2022/03/08 04:32:35;;;;;;;1.70;1.60;;;1.50;53.00;;;;;;4974881;28;20445;-72
2022/03/08 04:35:05;;;;;;;1.60;1.50;;;1.50;52.80;;;;;;4973959;28;20963;-72
2022/03/08 04:37:31;;;;;;;1.40;1.30;;;1.50;53.10;;;;;;4973936;28;20453;-72
2022/03/08 04:39:59;;;;;;;2.90;1.57;;;1.40;52.90;;;;;;4974036;28;20438;-72
2022/03/08 04:42:26;;;;;;;1.67;1.57;;;1.40;52.60;;;;;;4974090;28;20869;-72
2022/03/08 04:44:52;;;;;;;1.50;1.40;;;1.40;52.60;;;;;;4974042;28;20445;-72
2022/03/08 04:47:19;;;;;;;1.40;1.30;;;1.40;52.80;;;;;;4973775;28;21027;-72
2022/03/08 04:49:46;;;;;;;1.43;1.33;;;1.40;52.60;;;;;;4974397;28;20458;-72
2022/03/08 04:52:14;;;;;;;1.70;1.60;;;1.50;52.60;;;;;;4974187;28;20438;-72
2022/03/08 04:54:41;;;;;;;1.57;1.43;;;1.50;52.90;;;;;;4974971;28;20460;-72
2022/03/08 04:57:08;;;;;;;1.50;1.40;;;1.60;53.00;;;;;;4974238;28;20493;-73
2022/03/08 04:59:35;;;;;;;1.30;1.20;;;1.50;52.60;;;;;;4974050;28;20481;-73
2022/03/08 05:02:01;;;;;;;1.40;1.30;;;1.50;52.70;;;;;;4974534;28;20453;-72
2022/03/08 05:04:29;;;;;;;1.23;1.13;;;1.60;52.80;;;;;;4974175;28;20450;-73
2022/03/08 05:06:55;;;;;;;1.40;1.30;;;1.60;53.00;;;;;;4976969;28;20833;-73
2022/03/08 05:09:23;;;;;;;1.40;1.30;;;1.50;53.00;;;;;;4977314;28;20453;-73
2022/03/08 05:11:50;;;;;;;1.43;1.33;;;1.50;53.10;;;;;;4977591;28;20457;-73
2022/03/08 05:14:17;;;;;;;1.20;1.10;;;1.50;53.20;;;;;;4977477;28;20450;-73
2022/03/08 05:16:43;;;;;;;1.40;1.13;;;1.50;53.30;;;;;;4977330;28;20970;-73
2022/03/08 05:19:10;;;;;;;1.50;1.40;;;1.50;53.00;;;;;;4977450;28;20454;-73
2022/03/08 05:21:37;;;;;;;1.40;1.30;;;1.40;53.10;;;;;;4977409;28;20517;-73
2022/03/08 05:24:04;;;;;;;1.37;1.27;;;1.30;53.60;;;;;;4977260;28;20457;-73
2022/03/08 05:26:32;;;;;;;1.40;1.30;;;1.40;53.60;;;;;;4977293;28;20504;-73
2022/03/08 05:28:59;;;;;;;1.33;1.23;;;1.40;53.50;;;;;;4977039;28;20454;-73
2022/03/08 05:31:25;;;;;;;1.27;1.17;;;1.40;53.20;;;;;;4977370;28;20813;-73
2022/03/08 05:33:52;;;;;;;1.40;1.30;;;1.40;53.10;;;;;;4977193;28;20450;-73
2022/03/08 05:36:19;;;;;;;1.30;1.20;;;1.30;52.90;;;;;;4977284;28;20540;-73
2022/03/08 05:38:45;;;;;;;1.20;1.10;;;1.40;53.30;;;;;;4976785;28;20872;-73
2022/03/08 05:41:12;;;;;;;1.33;1.23;;;1.30;53.50;;;;;;4976926;28;20458;-73
2022/03/08 05:43:40;;;;;;;1.30;1.20;;;1.20;53.50;;;;;;4977012;28;20454;-73
2022/03/08 05:46:07;;;;;;;1.40;1.30;;;1.30;54.50;;;;;;4976672;28;20525;-73
2022/03/08 05:48:33;;;;;;;1.40;1.30;;;1.30;53.80;;;;;;4976412;28;20938;-73
2022/03/08 05:51:00;;;;;;;1.67;1.57;;;1.20;53.70;;;;;;4976763;28;20454;-73
2022/03/08 05:53:27;;;;;;;1.33;1.23;;;1.20;54.00;;;;;;4976628;28;20450;-73
2022/03/08 05:55:54;;;;;;;1.13;1.03;;;1.20;53.70;;;;;;4976597;28;20470;-73
2022/03/08 05:58:20;;;;;;;1.30;1.20;;;1.30;53.70;;;;;;4976544;28;20803;-73
2022/03/08 06:00:48;;;;;;;2.30;1.33;;;1.30;53.30;;;;;;4976859;28;20454;-73
2022/03/08 06:03:15;;;;;;;1.30;1.20;;;1.40;53.10;;;;;;4976481;28;20477;-73
2022/03/08 06:05:42;;;;;;;1.40;1.30;;;1.50;53.40;;;;;;4976428;28;20470;-73
2022/03/08 06:08:08;;;;;;;1.33;1.23;;;1.50;52.40;;;;;;4976167;28;20984;-73
2022/03/08 06:10:36;;;;;;;1.30;1.20;;;1.40;53.20;;;;;;4977933;28;20481;-74
2022/03/08 06:13:02;;;;;;;1.43;1.33;;;1.70;52.60;;;;;;4976045;28;20791;-74
2022/03/08 06:15:29;;;;;;;1.80;1.70;;;1.90;52.30;;;;;;4975878;28;20469;-73
2022/03/08 06:17:57;;;;;;;1.53;1.30;;;2.10;51.80;;;;;;4975964;28;20434;-74
2022/03/08 06:20:24;;;;;;;1.30;1.20;;;2.60;51.30;;;;;;4975934;28;20505;-73
2022/03/08 06:22:51;;;;;;;1.77;1.30;;;3.00;50.40;;;;;;4976018;28;20446;-74
2022/03/08 06:25:18;;;;;;;1.60;1.50;;;3.30;50.00;;;;;;4975981;28;20513;-73
2022/03/08 06:27:45;;;;;;;1.57;1.47;;;3.30;49.40;;;;;;4975726;28;20537;-74
2022/03/08 06:30:12;;;;;;;1.33;1.23;;;3.80;48.60;;;;;;4975975;28;20457;-74
2022/03/08 06:32:39;;;;;;;1.30;1.20;;;4.70;47.60;;;;;;4976394;28;20483;-74
2022/03/08 06:35:08;;;;;;;1.10;1.00;;;6.10;45.70;;;;;;4975951;28;20949;-74
2022/03/08 06:37:35;;;;;;;1.23;1.13;;;7.60;42.90;;;;;;4976366;28;20442;-74
2022/03/08 06:40:02;;;;;;;1.33;1.23;;;9.00;40.30;;;;;;4976518;28;20509;-74
2022/03/08 06:42:29;;;;;;;1.80;1.50;;;10.30;38.00;;;;;;4975829;28;20458;-74
2022/03/08 06:44:56;;;;;;;1.57;1.10;;;10.80;36.00;;;;;;4975913;28;20453;-74
2022/03/08 06:47:22;;;;;;;1.53;1.07;;;11.50;35.60;;;;;;4976132;28;20495;-74
2022/03/08 06:49:49;;;;;;;1.50;1.30;;;12.10;34.40;;;;;;4975730;28;20830;-74
2022/03/08 06:52:17;;;;;;;1.20;1.10;;;12.90;33.70;;;;;;4975948;28;20450;-74
2022/03/08 06:54:44;;;;;;;1.30;1.20;;;14.00;31.90;;;;;;4975950;28;20460;-74
2022/03/08 06:57:11;;;;;;;1.20;1.10;;;14.30;31.70;;;;;;4975934;28;20470;-74
2022/03/08 06:59:38;;;;;;;1.43;1.17;;;15.20;30.90;;;;;;4975537;28;20466;-74
2022/03/08 07:02:05;;;;;;;1.10;1.00;;;15.50;30.00;;;;;;4975496;28;20477;-74
2022/03/08 07:04:32;;;;;;;1.10;1.00;;;15.70;30.00;;;;;;4975443;28;20504;-74
2022/03/08 07:06:58;;;;;;;1.20;1.10;;;16.10;29.60;;;;;;4975376;28;20552;-75
2022/03/08 07:09:27;;;;;;;1.13;1.03;;;16.30;29.50;;;;;;4975439;28;20460;-74
2022/03/08 07:11:53;;;;;;;1.20;1.10;;;16.70;29.00;;;;;;4975316;28;20447;-74
2022/03/08 07:14:20;;;;;;;4.30;1.13;;;15.90;28.90;;;;;;4975327;28;20457;-74
2022/03/08 07:16:48;;;;;;;1.10;1.00;;;16.40;29.80;;;;;;4974891;28;20493;-75
2022/03/08 07:19:15;;;;;;;0.90;0.80;;;17.00;28.20;;;;;;4975218;28;20537;-75
2022/03/08 07:21:42;;;;;;;1.10;1.00;;;17.40;28.30;;;;;;4974904;28;20805;-74
2022/03/08 07:24:09;;;;;;;1.30;1.10;;;18.30;27.70;;;;;;4975126;28;20873;-74
2022/03/08 07:26:37;;;;;;;1.20;1.10;;;17.10;27.80;;;;;;4975007;28;20545;-74
2022/03/08 07:29:04;;;;;;;0.93;0.83;;;17.50;27.80;;;;;;4974247;28;20946;-74
2022/03/08 07:31:31;;;;;;;1.10;1.00;;;16.30;28.90;;;;;;4974739;28;20941;-75
2022/03/08 07:33:59;;;;;;;1.10;1.00;;;16.80;28.40;;;;;;4974634;28;20934;-74
2022/03/08 07:36:26;;;;;;;1.10;1.00;;;17.40;28.00;;;;;;4974846;28;20481;-74
2022/03/08 07:38:53;;;;;;;1.63;1.10;;;16.60;28.70;;;;;;4974834;28;20818;-74
2022/03/08 07:41:21;;;;;;;1.20;1.00;;;17.50;28.00;;;;;;4974521;28;20873;-74
2022/03/08 07:43:49;;;;;;;0.97;0.87;;;17.80;28.10;;;;;;4974777;28;20450;-74
2022/03/08 07:46:15;;;;;;;1.10;1.00;;;18.90;27.50;;;;;;4974836;28;20466;-74
2022/03/08 07:48:42;;;;;;;1.20;1.10;;;19.20;27.00;;;;;;4974817;28;20862;-74
2022/03/08 07:51:09;;;;;;;1.10;1.00;;;20.10;26.50;;;;;;4974770;28;20512;-74
2022/03/08 07:53:36;;;;;;;1.20;0.90;;;20.30;25.90;;;;;;4974417;28;20456;-74
2022/03/08 07:56:03;;;;;;;1.00;0.90;;;20.50;26.20;;;;;;4974633;28;20824;-74
2022/03/08 07:58:30;;;;;;;1.10;1.00;;;20.50;25.90;;;;;;4974270;28;20820;-74
2022/03/08 08:00:58;;;;;;;1.00;0.90;;;19.80;26.70;;;;;;4974612;28;20453;-74
2022/03/08 08:03:25;;;;;;;1.10;1.00;;;19.20;27.30;;;;;;4974761;28;20464;-74
2022/03/08 08:05:52;;;;;;;1.00;0.90;;;17.90;28.20;;;;;;4974674;28;20465;-75
2022/03/08 08:08:18;;;;;;;1.77;1.00;;;17.10;29.00;;;;;;4974576;28;20482;-74
2022/03/08 08:10:45;;;;;;;1.00;0.90;;;16.20;30.60;;;;;;4974330;28;20504;-74
2022/03/08 08:13:12;;;;;;;1.10;0.90;;;15.50;31.30;;;;;;4974221;28;20454;-74
2022/03/08 08:15:39;;;;;;;1.10;1.00;;;14.60;32.00;;;;;;4974030;28;20985;-74
2022/03/08 08:18:07;;;;;;;1.20;1.10;;;13.10;34.00;;;;;;4974634;28;20500;-74
2022/03/08 08:20:34;;;;;;;1.10;1.00;;;11.70;36.40;;;;;;4974394;28;20501;-74
2022/03/08 08:23:01;;;;;;;1.30;1.20;;;11.00;37.80;;;;;;4974874;28;20922;-83
2022/03/08 08:25:29;;;;;;;1.07;0.97;;;10.30;39.00;;;;;;4974519;28;20474;-77
2022/03/08 08:27:55;;;;;;;1.23;1.13;;;9.50;40.50;;;;;;4974340;28;20630;-75
2022/03/08 08:30:22;;;;;;;1.10;1.00;;;9.00;41.20;;;;;;4974309;28;20460;-72
2022/03/08 08:32:50;;;;;;;1.20;1.10;;;8.40;42.60;;;;;;4974915;28;20466;-76
2022/03/08 08:35:19;;;;;;;1.20;1.10;;;7.80;44.00;;;;;;4975153;28;20481;-74
2022/03/08 08:37:46;;;;;;;1.30;1.20;;;7.30;44.70;;;;;;4974565;28;20446;-74
2022/03/08 08:40:13;;;;;;;1.20;1.10;;;6.90;45.90;;;;;;4975514;28;20457;-74
2022/03/08 08:42:40;;;;;;;1.27;1.17;;;6.90;46.10;;;;;;4978300;28;20504;-74
2022/03/08 08:45:08;;;;;;;1.20;1.10;;;6.70;46.50;;;;;;4977980;28;20450;-74
2022/03/08 08:47:35;;;;;;;1.20;1.10;;;6.50;47.10;;;;;;4978060;28;20481;-74
2022/03/08 08:50:02;;;;;;;1.50;1.40;;;6.30;47.90;;;;;;4978012;28;20459;-74
2022/03/08 08:52:30;;;;;;;1.27;1.17;;;6.00;48.00;;;;;;4979024;28;20935;-74
2022/03/08 08:54:56;;;;;;;1.13;1.03;;;6.20;48.70;;;;;;4978428;28;20467;-74
2022/03/08 08:57:23;;;;;;;1.23;1.13;;;6.30;47.90;;;;;;4977572;28;20473;-74
2022/03/08 08:59:50;;;;;;;1.50;1.40;;;6.20;47.50;;;;;;4977790;28;20445;-73
2022/03/08 09:02:17;;;;;;;1.10;1.00;;;5.30;48.70;;;;;;4977725;28;20446;-74
2022/03/08 09:04:44;;;;;;;1.10;1.00;;;5.50;49.70;;;;;;4977585;28;20450;-74
2022/03/08 09:07:11;;;;;;;1.20;1.10;;;5.60;49.30;;;;;;4977344;28;20478;-74
2022/03/08 09:09:39;;;;;;;1.30;1.20;;;5.70;47.70;;;;;;4977436;28;20801;-74
2022/03/08 09:12:06;;;;;;;1.20;0.90;;;5.70;48.30;;;;;;4977387;28;20449;-74
2022/03/08 09:14:33;;;;;;;1.20;1.07;;;5.60;48.10;;;;;;4977309;28;20453;-75
2022/03/08 09:17:00;;;;;;;1.17;1.07;;;5.70;47.60;;;;;;4976928;28;21068;-74
2022/03/08 09:19:27;;;;;;;1.20;1.10;;;5.30;47.70;;;;;;4977369;28;20446;-74
2022/03/08 09:21:53;;;;;;;1.10;1.00;;;5.30;48.30;;;;;;4977342;28;20445;-73
2022/03/08 09:24:20;;;;;;;1.33;1.23;;;5.30;48.00;;;;;;4977834;28;20788;-75
2022/03/08 09:26:48;;;;;;;1.10;1.00;;;5.30;48.10;;;;;;4977343;28;21012;-74
2022/03/08 09:29:15;;;;;;;1.10;1.00;;;5.30;47.70;;;;;;4977347;28;20788;-75
2022/03/08 09:31:42;;;;;;;1.10;1.00;;;5.20;47.70;;;;;;4977419;28;20449;-74
2022/03/08 09:34:09;;;;;;;1.00;0.90;;;5.30;47.80;;;;;;4977395;28;20457;-74
2022/03/08 09:36:37;;;;;;;1.20;1.10;;;5.20;47.40;;;;;;4977155;28;20478;-74
2022/03/08 09:39:05;;;;;;;1.20;1.10;;;5.10;48.10;;;;;;4976919;28;20945;-75
2022/03/08 09:41:31;;;;;;;1.30;1.20;;;5.40;48.00;;;;;;4977114;28;20454;-74
2022/03/08 09:44:01;;;;;;;1.20;1.10;;;5.50;47.70;;;;;;4976959;28;20821;-74
2022/03/08 09:46:27;;;;;;;1.10;1.00;;;5.60;47.90;;;;;;4976770;28;20989;-73
2022/03/08 09:48:55;;;;;;;1.20;1.10;;;5.70;47.50;;;;;;4977044;28;20513;-74
2022/03/08 09:51:23;;;;;;;1.10;1.00;;;5.60;47.70;;;;;;4976654;28;20462;-74
2022/03/08 09:53:53;;;;;;;1.30;1.20;;;5.60;47.80;;;;;;4977145;28;20450;-74
2022/03/08 09:56:20;;;;;;;1.00;0.90;;;5.70;46.70;;;;;;4977113;28;20458;-74
2022/03/08 09:58:46;;;;;;;1.13;1.03;;;5.80;46.70;;;;;;4976615;28;20461;-74
2022/03/08 10:01:15;;;;;;;1.20;1.10;;;5.70;47.10;;;;;;4976612;28;20453;-73
2022/03/08 10:03:46;;;;;;;1.20;1.10;;;6.00;47.10;;;;;;4976600;28;20487;-73
2022/03/08 10:06:13;;;;;;;1.10;1.00;;;6.00;46.90;;;;;;4976525;28;20997;-73
2022/03/08 10:08:39;;;;;;;1.93;1.27;;;5.90;46.70;;;;;;4977282;28;20490;-74
2022/03/08 10:11:11;;;;;;;1.27;1.17;;;6.00;47.10;;;;;;4976705;28;20504;-74
2022/03/08 10:13:42;;;;;;;1.30;1.20;;;6.10;46.40;;;;;;4976378;28;20924;-74
2022/03/08 10:16:15;;;;;;;1.87;1.10;;;5.90;45.90;;;;;;5081109;23;20497;-71
2022/03/08 10:18:45;;;;;;;1.00;0.90;;;5.70;46.00;;;;;;4995753;28;20469;-70
2022/03/08 10:21:32;;;;;;;1.00;0.90;;;5.50;46.20;;;;;;4995613;28;20449;-70
2022/03/08 10:24:00;;;;;;;1.07;0.97;;;5.50;47.10;;;;;;4995340;28;20936;-71
2022/03/08 10:26:27;;;;;;;1.30;1.20;;;5.60;47.10;;;;;;4987163;28;20465;-70
2022/03/08 10:28:55;;;;;;;1.00;0.90;;;6.00;46.60;;;;;;4975928;28;20486;-70
2022/03/08 10:31:24;;;;;;;1.03;0.93;;;6.10;45.90;;;;;;4976266;28;20477;-70
2022/03/08 10:33:51;;;;;;;1.47;1.00;;;6.30;45.10;;;;;;4975992;28;20454;-70
2022/03/08 10:36:21;;;;;;;0.90;0.80;;;6.40;44.90;;;;;;4975788;28;20473;-69
2022/03/08 10:39:18;;;;;;;1.13;0.93;;;6.60;45.30;;;;;;4975914;28;20430;-70
2022/03/08 10:41:50;;;;;;;1.10;1.00;;;6.70;43.80;;;;;;4897376;29;20983;-70
2022/03/08 10:44:19;;;;;;;1.00;0.90;;;6.80;43.90;;;;;;4959563;28;20465;-70
2022/03/08 10:47:01;;;;;;;1.00;0.90;;;6.50;43.20;;;;;;4975788;28;21020;-70
2022/03/08 10:49:28;;;;;;;1.27;1.10;;;6.70;43.20;;;;;;4975533;28;20481;-71
2022/03/08 10:52:00;;;;;;;0.90;0.80;;;6.70;43.10;;;;;;4975642;28;20457;-70
2022/03/08 10:54:27;;;;;;;1.03;0.93;;;6.80;43.30;;;;;;4975699;28;20513;-71
2022/03/08 10:56:55;;;;;;;1.10;1.00;;;6.90;42.60;;;;;;4975215;28;21008;-70
2022/03/08 10:59:22;;;;;;;1.30;1.00;;;7.00;42.10;;;;;;4975501;28;20446;-70
2022/03/08 11:01:49;;;;;;;1.23;1.03;;;7.00;42.60;;;;;;4975478;28;20453;-71
2022/03/08 11:04:21;;;;;;;1.93;1.10;;;7.10;42.20;;;;;;4974563;28;20522;-70
2022/03/08 11:06:50;;;;;;;0.93;0.83;;;7.10;41.40;;;;;;4975384;28;20469;-70
2022/03/08 11:09:18;;;;;;;3.37;1.10;;;7.00;41.10;;;;;;4975356;28;20485;-71
2022/03/08 11:11:45;;;;;;;1.13;1.00;;;7.00;41.10;;;;;;4975318;28;20567;-71
2022/03/08 11:14:12;;;;;;;1.00;0.90;;;7.10;41.70;;;;;;4974838;28;20937;-70
2022/03/08 11:16:40;;;;;;;1.07;0.97;;;7.20;41.20;;;;;;4974687;28;20481;-70
2022/03/08 11:19:07;;;;;;;1.13;1.03;;;7.20;40.60;;;;;;4975608;28;20833;-70
2022/03/08 11:21:36;;;;;;;0.90;0.80;;;7.10;41.10;;;;;;4975240;28;20452;-70
2022/03/08 11:24:05;;;;;;;1.30;1.20;;;7.30;40.70;;;;;;4975065;28;20481;-70
2022/03/08 11:26:32;;;;;;;1.00;0.80;;;7.40;40.80;;;;;;4974931;28;20491;-71
2022/03/08 11:29:00;;;;;;;1.00;0.90;;;7.50;41.00;;;;;;4974895;28;20473;-70
2022/03/08 11:31:31;;;;;;;0.90;0.80;;;7.50;40.30;;;;;;4974647;28;20449;-70
2022/03/08 11:34:05;;;;;;;3.63;0.90;;;7.60;40.60;;;;;;4974995;28;20438;-70
2022/03/08 11:36:34;;;;;;;1.10;1.00;;;7.60;40.40;;;;;;4974843;28;20832;-70
2022/03/08 11:39:21;;;;;;;1.00;0.90;;;7.80;41.10;;;;;;4974876;28;20446;-71
2022/03/08 11:41:51;;;;;;;1.00;0.90;;;7.90;39.80;;;;;;4974803;28;20429;-71
2022/03/08 11:44:26;;;;;;;0.90;0.80;;;7.90;40.00;;;;;;4975052;28;20457;-71
2022/03/08 11:56:18;;;;;;;1.77;1.00;;;8.00;39.50;;;;;;4994132;28;20448;-72
2022/03/08 11:58:47;;;;;;;1.00;0.90;;;8.10;39.60;;;;;;4993685;28;20444;-72
2022/03/08 12:01:25;;;;;;;1.10;1.00;;;8.30;39.60;;;;;;4994182;28;20447;-72
2022/03/08 12:03:57;;;;;;;1.00;0.90;;;8.50;38.60;;;;;;4981783;28;20889;-71
2022/03/08 12:06:31;;;;;;;1.10;1.00;;;8.50;38.30;;;;;;4975965;28;20945;-72
2022/03/08 12:09:07;;;;;;;1.00;0.90;;;8.30;38.60;;;;;;4974814;28;20533;-72
2022/03/08 12:11:43;;;;;;;1.00;0.90;;;8.40;39.20;;;;;;4974849;28;20446;-72
2022/03/08 12:14:16;;;;;;;1.10;1.00;;;8.70;38.20;;;;;;4975660;28;20476;-72
2022/03/08 12:16:44;;;;;;;0.90;0.80;;;8.60;37.70;;;;;;4979073;28;20458;-73
2022/03/08 12:19:13;;;;;;;0.97;0.87;;;8.90;38.60;;;;;;4978580;28;20960;-72
2022/03/08 12:21:45;;;;;;;0.90;0.80;;;9.20;37.30;;;;;;4978615;28;20532;-72
2022/03/08 12:24:15;;;;;;;1.00;0.90;;;9.20;36.80;;;;;;4978858;28;20478;-72
2022/03/08 12:26:57;;;;;;;1.10;1.00;;;9.20;36.60;;;;;;4978698;28;20456;-73
2022/03/08 12:29:25;;;;;;;1.00;0.90;;;9.40;37.10;;;;;;4978350;28;20466;-73
2022/03/08 12:32:26;;;;;;;1.17;0.90;;;9.70;37.20;;;;;;4978454;28;20454;-72
2022/03/08 12:34:56;;;;;;;1.00;0.90;;;9.70;36.90;;;;;;4978576;28;20430;-72
2022/03/08 12:37:24;;;;;;;1.10;1.00;;;10.00;37.10;;;;;;4978624;28;20493;-73
2022/03/08 12:39:55;;;;;;;1.30;1.20;;;10.10;36.40;;;;;;4978396;28;20445;-73
2022/03/08 12:42:28;;;;;;;1.10;1.00;;;10.30;36.60;;;;;;4978408;28;20430;-72
2022/03/08 12:44:59;;;;;;;1.00;0.90;;;10.60;36.40;;;;;;4977888;28;20878;-73
2022/03/08 12:47:28;;;;;;;0.90;0.80;;;10.60;36.00;;;;;;4979015;28;20505;-73
2022/03/08 12:49:59;;;;;;;1.00;0.90;;;10.20;34.70;;;;;;4978447;28;20532;-72
2022/03/08 12:52:28;;;;;;;0.90;0.80;;;10.00;35.00;;;;;;4977892;28;20449;-73
2022/03/08 12:54:57;;;;;;;1.00;0.90;;;9.60;35.00;;;;;;4977841;28;20442;-73
2022/03/08 12:57:25;;;;;;;1.40;1.10;;;9.80;36.20;;;;;;4977779;28;20441;-73
2022/03/08 12:59:53;;;;;;;1.17;1.07;;;10.10;36.30;;;;;;4977851;28;20481;-73
2022/03/08 13:02:21;;;;;;;1.00;0.90;;;10.50;36.20;;;;;;4977474;28;20450;-74
2022/03/08 13:04:49;;;;;;;1.00;0.90;;;10.70;35.70;;;;;;4977164;28;20823;-74
2022/03/08 13:07:17;;;;;;;0.90;0.80;;;10.50;33.80;;;;;;4977545;28;20457;-72
2022/03/08 13:09:55;;;;;;;1.73;0.97;;;10.60;35.10;;;;;;4977106;28;21078;-73
2022/03/08 13:12:25;;;;;;;1.20;1.03;;;10.80;35.00;;;;;;4977414;28;20457;-72
2022/03/08 13:15:13;;;;;;;1.00;0.90;;;10.80;35.00;;;;;;4978579;28;20497;-72
2022/03/08 13:17:40;;;;;;;1.10;1.00;;;10.80;34.90;;;;;;4977577;28;20464;-72
2022/03/08 13:20:23;;;;;;;1.67;1.00;;;10.50;35.20;;;;;;4977607;28;20442;-72
2022/03/08 13:22:50;;;;;;;1.30;1.20;;;10.30;35.40;;;;;;4977919;28;20470;-72
2022/03/08 13:25:18;;;;;;;1.10;1.00;;;10.60;36.10;;;;;;4976951;28;20513;-73
2022/03/08 13:28:01;;;;;;;2.00;1.10;;;10.80;35.90;;;;;;4976822;28;20457;-72
2022/03/08 13:30:32;;;;;;;1.10;1.00;;;11.00;36.10;;;;;;4977249;28;20470;-72
2022/03/08 13:33:18;;;;;;;1.40;1.30;;;11.10;35.40;;;;;;4977155;28;20494;-72
2022/03/08 13:35:47;;;;;;;1.20;1.10;;;11.30;35.90;;;;;;4977070;28;20454;-72
2022/03/08 13:38:16;;;;;;;1.20;1.10;;;11.70;35.10;;;;;;4977066;28;20454;-73
2022/03/08 13:40:44;;;;;;;1.20;1.10;;;11.60;34.70;;;;;;4976566;28;20854;-72
2022/03/08 13:43:13;;;;;;;1.40;1.07;;;11.20;35.10;;;;;;4977041;28;20494;-73
2022/03/08 13:45:41;;;;;;;1.30;1.20;;;11.40;35.20;;;;;;4977089;28;20454;-72
2022/03/08 13:48:08;;;;;;;1.00;0.90;;;11.50;34.90;;;;;;4976536;28;20949;-73
2022/03/08 13:50:35;;;;;;;1.00;0.90;;;11.40;35.10;;;;;;4976852;28;20505;-72
2022/03/08 13:53:09;;;;;;;1.10;1.00;;;11.60;36.00;;;;;;4976914;28;20517;-73
2022/03/08 13:55:36;;;;;;;1.10;0.90;;;12.00;34.50;;;;;;4976982;28;20772;-72
2022/03/08 13:58:05;;;;;;;0.90;0.80;;;12.00;33.60;;;;;;4976535;28;20464;-73
2022/03/08 14:00:35;;;;;;;1.10;0.90;;;12.50;33.60;;;;;;4976706;28;20445;-73
2022/03/08 14:03:03;;;;;;;1.00;0.90;;;13.10;32.90;;;;;;4976860;28;20520;-74
2022/03/08 14:05:31;;;;;;;1.00;0.90;;;13.70;31.90;;;;;;4976531;28;20446;-73
2022/03/08 14:07:59;;;;;;;1.00;0.90;;;14.40;31.20;;;;;;4976504;28;20866;-73
2022/03/08 14:10:27;;;;;;;1.00;0.90;;;15.40;30.40;;;;;;4976416;28;20536;-73
2022/03/08 14:12:55;;;;;;;1.20;1.10;;;16.50;28.70;;;;;;4976945;28;20474;-73
2022/03/08 14:15:24;;;;;;;1.60;1.00;;;17.20;27.70;;;;;;4976508;28;20450;-73
2022/03/08 14:18:07;;;;;;;1.00;0.90;;;17.80;27.00;;;;;;4976322;28;20454;-73
2022/03/08 14:20:38;;;;;;;1.10;1.00;;;18.50;26.60;;;;;;4976647;28;20889;-73
2022/03/08 14:23:07;;;;;;;1.20;1.10;;;19.20;25.80;;;;;;4976145;28;20606;-73
2022/03/08 14:25:36;;;;;;;1.20;1.10;;;18.90;25.70;;;;;;4976092;28;20454;-73
2022/03/08 14:28:03;;;;;;;1.00;0.80;;;19.20;25.70;;;;;;4975927;28;21008;-74
2022/03/08 14:30:30;;;;;;;0.90;0.80;;;19.50;25.30;;;;;;4975892;28;20898;-74
2022/03/08 14:33:06;;;;;;;1.40;1.10;;;19.80;24.80;;;;;;4976328;28;20474;-73
2022/03/08 14:35:33;;;;;;;1.30;1.10;;;19.20;25.20;;;;;;4976534;28;20441;-73
2022/03/08 14:38:06;;;;;;;1.10;1.00;;;19.70;25.20;;;;;;4976428;28;20450;-73
2022/03/08 14:40:39;;;;;;;0.93;0.83;;;19.00;24.80;;;;;;4976336;28;20518;-73
2022/03/08 14:43:08;;;;;;;1.20;0.90;;;19.60;25.20;;;;;;4975681;28;20479;-73
2022/03/08 14:45:35;;;;;;;1.10;0.90;;;19.90;24.60;;;;;;4976089;28;20446;-73
2022/03/08 14:48:01;;;;;;;1.03;0.93;;;19.60;24.30;;;;;;4975390;28;20809;-73
2022/03/08 14:50:30;;;;;;;1.27;1.17;;;19.00;24.70;;;;;;4975547;28;20533;-73
2022/03/08 14:52:57;;;;;;;1.00;0.90;;;18.60;24.70;;;;;;4975485;28;20485;-73
2022/03/08 14:55:25;;;;;;;0.97;0.87;;;17.00;25.60;;;;;;4975511;28;20465;-73
2022/03/08 14:57:56;;;;;;;1.03;0.80;;;17.40;26.40;;;;;;4975234;28;20466;-73
2022/03/08 15:00:26;;;;;;;1.10;1.00;;;18.00;26.30;;;;;;4975646;28;20443;-74
2022/03/08 15:02:53;;;;;;;1.20;1.10;;;18.50;25.70;;;;;;4975663;28;20528;-73
2022/03/08 15:05:20;;;;;;;1.20;1.00;;;19.00;25.50;;;;;;4975375;28;20445;-74
2022/03/08 15:07:48;;;;;;;1.17;1.07;;;19.00;25.50;;;;;;4975150;28;20966;-73
2022/03/08 15:10:15;;;;;;;1.10;1.00;;;18.90;25.80;;;;;;4975140;28;20488;-74
2022/03/08 15:12:42;;;;;;;0.90;0.80;;;19.00;26.00;;;;;;4982564;28;20454;-80
2022/03/08 15:15:09;;;;;;;1.10;0.93;;;19.60;30.40;;;;;;4978643;28;20461;-74
2022/03/08 15:17:36;;;;;;;1.00;0.90;;;19.90;25.80;;;;;;4975175;28;20457;-74
2022/03/08 15:20:04;;;;;;;1.30;1.03;;;19.70;25.30;;;;;;4975255;28;20449;-74
2022/03/08 15:22:31;;;;;;;1.00;0.90;;;19.30;25.70;;;;;;4975039;28;20524;-74
2022/03/08 15:25:01;;;;;;;1.00;0.90;;;17.70;26.00;;;;;;4974994;28;20528;-74
2022/03/08 15:27:29;;;;;;;1.10;0.90;;;16.80;27.60;;;;;;4975084;28;20435;-73
2022/03/08 15:29:55;;;;;;;1.10;1.00;;;17.00;27.70;;;;;;4975026;28;20940;-75
2022/03/08 15:32:22;;;;;;;0.90;0.70;;;17.10;27.40;;;;;;4975235;28;20454;-73
2022/03/08 15:34:49;;;;;;;1.30;0.87;;;17.50;26.90;;;;;;4975150;28;20477;-74
2022/03/08 15:37:16;;;;;;;1.00;0.80;;;17.20;26.80;;;;;;4975244;28;20454;-73
2022/03/08 15:39:43;;;;;;;1.00;0.90;;;16.60;27.30;;;;;;4975180;28;20940;-72
2022/03/08 15:42:11;;;;;;;1.10;1.00;;;15.90;27.80;;;;;;4974859;28;20972;-73
2022/03/08 15:44:39;;;;;;;1.10;1.00;;;15.30;28.40;;;;;;4974746;28;20893;-73
2022/03/08 15:47:07;;;;;;;1.03;0.93;;;14.70;28.90;;;;;;4975169;28;20486;-73
2022/03/08 15:49:33;;;;;;;1.10;1.00;;;13.80;29.50;;;;;;4974365;28;20517;-73
2022/03/08 15:52:00;;;;;;;0.93;0.83;;;13.10;30.20;;;;;;4974665;28;20454;-73
2022/03/08 15:54:27;;;;;;;0.90;0.77;;;12.90;30.50;;;;;;4974605;28;20473;-73
2022/03/08 15:56:54;;;;;;;1.10;1.00;;;11.70;31.30;;;;;;4974214;28;20968;-73
2022/03/08 15:59:22;;;;;;;1.10;1.00;;;11.20;32.60;;;;;;4974867;28;20864;-72
2022/03/08 16:01:49;;;;;;;0.90;0.80;;;10.70;33.00;;;;;;4974580;28;20500;-73
2022/03/08 16:04:15;;;;;;;1.30;1.00;;;10.20;34.30;;;;;;4974476;28;20528;-73
2022/03/08 16:06:42;;;;;;;1.70;0.90;;;10.10;34.30;;;;;;4974508;28;20453;-72
2022/03/08 16:09:09;;;;;;;1.00;0.90;;;10.00;34.30;;;;;;4974456;28;20512;-73
2022/03/08 16:11:35;;;;;;;1.17;1.07;;;9.90;34.40;;;;;;4974445;28;20552;-73
2022/03/08 16:14:02;;;;;;;1.00;0.90;;;10.00;34.80;;;;;;4974356;28;20504;-73
2022/03/08 16:16:31;;;;;;;1.30;1.03;;;10.00;34.80;;;;;;4974564;28;20504;-73
2022/03/08 16:18:57;;;;;;;1.27;1.10;;;9.80;34.70;;;;;;4974135;28;20968;-72
2022/03/08 16:21:24;;;;;;;1.00;0.90;;;9.70;34.60;;;;;;4974302;28;20533;-73
2022/03/08 16:23:51;;;;;;;1.00;0.90;;;9.80;34.90;;;;;;4974212;28;20470;-73
2022/03/08 16:26:17;;;;;;;1.10;0.90;;;9.60;34.50;;;;;;4974203;28;20450;-73
2022/03/08 16:28:45;;;;;;;1.37;1.00;;;9.40;34.90;;;;;;4974491;28;20454;-73
2022/03/08 16:31:13;;;;;;;1.03;0.93;;;9.40;35.20;;;;;;4974808;28;20836;-74
2022/03/08 16:33:41;;;;;;;1.40;0.93;;;9.30;34.80;;;;;;4973986;28;20842;-74
2022/03/08 16:36:07;;;;;;;1.00;0.90;;;9.20;35.30;;;;;;4974252;28;20862;-74
2022/03/08 16:38:34;;;;;;;0.90;0.80;;;9.30;35.30;;;;;;4974157;28;20454;-73
2022/03/08 16:41:01;;;;;;;1.00;0.90;;;9.40;35.00;;;;;;4974019;28;20446;-74
2022/03/08 16:43:28;;;;;;;1.20;1.00;;;9.50;34.70;;;;;;4973776;28;20993;-73
2022/03/08 16:45:56;;;;;;;1.00;0.90;;;9.50;35.20;;;;;;4974247;28;20508;-73
2022/03/08 16:48:22;;;;;;;1.00;0.90;;;9.50;34.80;;;;;;4974203;28;20501;-73
2022/03/08 16:50:51;;;;;;;2.03;1.83;;;9.40;34.90;;;;;;4974214;28;20532;-73
2022/03/08 16:53:18;;;;;;;1.10;1.00;;;9.40;35.00;;;;;;4973864;28;20470;-74
2022/03/08 16:55:44;;;;;;;1.10;1.00;;;9.60;34.90;;;;;;4974174;28;20454;-74
2022/03/08 16:58:12;;;;;;;1.03;0.93;;;9.60;34.60;;;;;;4973946;28;20512;-74
2022/03/08 17:00:40;;;;;;;1.00;0.90;;;9.30;34.80;;;;;;4974028;28;20454;-74
2022/03/08 17:03:06;;;;;;;1.00;0.90;;;9.30;35.20;;;;;;4977567;28;20465;-74
2022/03/08 17:05:33;;;;;;;1.07;0.97;;;9.20;35.40;;;;;;4977230;28;20508;-73
2022/03/08 17:08:01;;;;;;;1.10;0.87;;;9.00;35.50;;;;;;4977487;28;20465;-74